sensor_id;sensor_type;location;lat;lon;timestamp;pressure;altitude;pressure_sealevel;temperature;humidity
68329;BME280;55182;56.864;60.554;2023-03-01T00:01:30;75090.00;;;-143.60;77.18
68329;BME280;55182;56.864;60.554;2023-03-01T00:03:57;75085.97;;;-143.60;77.03
68329;BME280;55182;56.864;60.554;2023-03-01T00:06:23;75081.97;;;-143.60;77.02
68329;BME280;55182;56.864;60.554;2023-03-01T00:08:49;75079.94;;;-143.60;77.00
68329;BME280;55182;56.864;60.554;2023-03-01T00:11:19;75083.97;;;-143.60;77.28
68329;BME280;55182;56.864;60.554;2023-03-01T00:13:46;75088.00;;;-143.60;77.34
68329;BME280;55182;56.864;60.554;2023-03-01T00:16:13;75090.00;;;-143.60;77.35
68329;BME280;55182;56.864;60.554;2023-03-01T00:18:39;75088.00;;;-143.60;77.71
68329;BME280;55182;56.864;60.554;2023-03-01T00:21:05;75090.00;;;-143.60;77.74
68329;BME280;55182;56.864;60.554;2023-03-01T00:23:30;75100.03;;;-143.60;77.82
68329;BME280;55182;56.864;60.554;2023-03-01T00:25:56;75102.06;;;-143.60;78.23
68329;BME280;55182;56.864;60.554;2023-03-01T00:28:22;75110.09;;;-143.60;78.15
68329;BME280;55182;56.864;60.554;2023-03-01T00:30:47;75102.06;;;-143.60;78.38
68329;BME280;55182;56.864;60.554;2023-03-01T00:33:13;75104.06;;;-143.60;78.17
68329;BME280;55182;56.864;60.554;2023-03-01T00:35:38;75104.06;;;-143.60;78.22
68329;BME280;55182;56.864;60.554;2023-03-01T00:38:04;75110.09;;;-143.60;78.37
68329;BME280;55182;56.864;60.554;2023-03-01T00:40:31;75108.06;;;-143.60;78.17
68329;BME280;55182;56.864;60.554;2023-03-01T00:42:57;75094.00;;;-143.60;78.48
68329;BME280;55182;56.864;60.554;2023-03-01T00:45:23;75100.03;;;-143.60;78.41
68329;BME280;55182;56.864;60.554;2023-03-01T00:47:49;75100.03;;;-143.60;78.19
68329;BME280;55182;56.864;60.554;2023-03-01T00:50:14;75110.09;;;-143.60;78.35
68329;BME280;55182;56.864;60.554;2023-03-01T00:52:40;75110.09;;;-143.60;78.64
68329;BME280;55182;56.864;60.554;2023-03-01T00:55:06;75104.06;;;-143.60;78.68
68329;BME280;55182;56.864;60.554;2023-03-01T00:57:33;75108.06;;;-143.60;78.62
68329;BME280;55182;56.864;60.554;2023-03-01T00:59:59;75104.06;;;-143.60;78.76
68329;BME280;55182;56.864;60.554;2023-03-01T01:02:24;75102.06;;;-143.60;78.90
68329;BME280;55182;56.864;60.554;2023-03-01T01:04:51;75104.06;;;-143.60;79.04
68329;BME280;55182;56.864;60.554;2023-03-01T01:07:16;75098.03;;;-143.60;78.93
68329;BME280;55182;56.864;60.554;2023-03-01T01:09:42;75098.03;;;-143.60;78.70
68329;BME280;55182;56.864;60.554;2023-03-01T01:12:08;75094.00;;;-143.60;78.82
68329;BME280;55182;56.864;60.554;2023-03-01T01:14:33;75096.03;;;-143.60;78.95
68329;BME280;55182;56.864;60.554;2023-03-01T01:16:59;75104.06;;;-143.60;79.05
68329;BME280;55182;56.864;60.554;2023-03-01T01:19:25;75094.00;;;-143.60;79.04
68329;BME280;55182;56.864;60.554;2023-03-01T01:21:51;75092.00;;;-143.60;79.06
68329;BME280;55182;56.864;60.554;2023-03-01T01:24:17;75094.00;;;-143.60;79.19
68329;BME280;55182;56.864;60.554;2023-03-01T01:26:44;75092.00;;;-143.60;79.03
68329;BME280;55182;56.864;60.554;2023-03-01T01:29:11;75092.00;;;-143.60;79.14
68329;BME280;55182;56.864;60.554;2023-03-01T01:31:38;75083.97;;;-143.60;79.31
68329;BME280;55182;56.864;60.554;2023-03-01T01:34:04;75085.97;;;-143.60;79.45
68329;BME280;55182;56.864;60.554;2023-03-01T01:36:31;75085.97;;;-143.60;79.29
68329;BME280;55182;56.864;60.554;2023-03-01T01:38:56;75077.94;;;-143.60;79.41
68329;BME280;55182;56.864;60.554;2023-03-01T01:41:23;75073.94;;;-143.60;79.50
68329;BME280;55182;56.864;60.554;2023-03-01T01:46:32;75079.94;;;-143.60;79.67
68329;BME280;55182;56.864;60.554;2023-03-01T01:49:03;75069.91;;;-143.60;79.48
68329;BME280;55182;56.864;60.554;2023-03-01T01:51:35;75073.94;;;-143.60;79.60
68329;BME280;55182;56.864;60.554;2023-03-01T01:54:01;75073.94;;;-143.60;79.76
68329;BME280;55182;56.864;60.554;2023-03-01T01:56:26;75067.91;;;-143.60;80.07
68329;BME280;55182;56.864;60.554;2023-03-01T01:58:54;75071.91;;;-143.60;80.30
68329;BME280;55182;56.864;60.554;2023-03-01T02:01:20;75065.88;;;-143.60;80.21
68329;BME280;55182;56.864;60.554;2023-03-01T02:03:45;75067.91;;;-143.60;80.54
68329;BME280;55182;56.864;60.554;2023-03-01T02:06:13;75069.91;;;-143.60;80.56
68329;BME280;55182;56.864;60.554;2023-03-01T02:08:42;75067.91;;;-143.60;80.69
68329;BME280;55182;56.864;60.554;2023-03-01T02:11:09;75067.91;;;-143.60;80.81
68329;BME280;55182;56.864;60.554;2023-03-01T02:13:35;75065.88;;;-143.60;80.74
68329;BME280;55182;56.864;60.554;2023-03-01T02:16:08;75061.88;;;-143.60;81.02
68329;BME280;55182;56.864;60.554;2023-03-01T02:18:34;75059.88;;;-143.60;80.87
68329;BME280;55182;56.864;60.554;2023-03-01T02:23:31;75049.81;;;-143.60;80.88
68329;BME280;55182;56.864;60.554;2023-03-01T02:26:00;75045.81;;;-143.60;80.84
68329;BME280;55182;56.864;60.554;2023-03-01T02:30:51;75035.75;;;-143.60;80.66
68329;BME280;55182;56.864;60.554;2023-03-01T02:33:18;75031.75;;;-143.60;80.70
68329;BME280;55182;56.864;60.554;2023-03-01T02:35:43;75035.75;;;-143.60;80.77
68329;BME280;55182;56.864;60.554;2023-03-01T02:38:09;75037.75;;;-143.60;80.67
68329;BME280;55182;56.864;60.554;2023-03-01T02:40:35;75039.78;;;-143.60;80.79
68329;BME280;55182;56.864;60.554;2023-03-01T02:43:02;75029.72;;;-143.60;80.59
68329;BME280;55182;56.864;60.554;2023-03-01T02:45:29;75023.69;;;-143.60;80.64
68329;BME280;55182;56.864;60.554;2023-03-01T02:47:56;75021.69;;;-143.60;80.56
68329;BME280;55182;56.864;60.554;2023-03-01T02:53:16;75009.63;;;-143.60;80.46
68329;BME280;55182;56.864;60.554;2023-03-01T02:55:46;75001.59;;;-143.60;80.26
68329;BME280;55182;56.864;60.554;2023-03-01T02:58:12;74997.59;;;-143.60;80.04
68329;BME280;55182;56.864;60.554;2023-03-01T03:00:38;74989.56;;;-143.60;80.00
68329;BME280;55182;56.864;60.554;2023-03-01T03:03:05;74987.53;;;-143.60;79.69
68329;BME280;55182;56.864;60.554;2023-03-01T03:05:32;74981.50;;;-143.60;79.73
68329;BME280;55182;56.864;60.554;2023-03-01T03:07:59;74973.47;;;-143.60;79.55
68329;BME280;55182;56.864;60.554;2023-03-01T03:10:29;74961.44;;;-143.60;79.25
68329;BME280;55182;56.864;60.554;2023-03-01T03:12:57;74959.41;;;-143.60;78.98
68329;BME280;55182;56.864;60.554;2023-03-01T03:15:23;74951.38;;;-143.60;78.73
68329;BME280;55182;56.864;60.554;2023-03-01T03:17:49;74945.34;;;-143.60;78.67
68329;BME280;55182;56.864;60.554;2023-03-01T03:20:15;74947.38;;;-143.60;78.08
68329;BME280;55182;56.864;60.554;2023-03-01T03:22:41;74945.34;;;-143.60;77.94
68329;BME280;55182;56.864;60.554;2023-03-01T03:25:07;74943.34;;;-143.60;77.91
68329;BME280;55182;56.864;60.554;2023-03-01T03:27:33;74953.41;;;-143.60;78.04
68329;BME280;55182;56.864;60.554;2023-03-01T03:29:58;74957.41;;;-143.60;78.02
68329;BME280;55182;56.864;60.554;2023-03-01T03:32:24;74961.44;;;-143.60;78.07
68329;BME280;55182;56.864;60.554;2023-03-01T03:34:49;74963.44;;;-143.60;78.01
68329;BME280;55182;56.864;60.554;2023-03-01T03:37:15;74961.44;;;-143.60;78.15
68329;BME280;55182;56.864;60.554;2023-03-01T03:39:40;74957.41;;;-143.60;77.92
68329;BME280;55182;56.864;60.554;2023-03-01T03:42:06;74957.41;;;-143.60;78.07
68329;BME280;55182;56.864;60.554;2023-03-01T03:44:31;74951.38;;;-143.60;78.17
68329;BME280;55182;56.864;60.554;2023-03-01T03:46:57;74945.34;;;-143.60;78.17
68329;BME280;55182;56.864;60.554;2023-03-01T03:49:22;74941.34;;;-143.60;78.21
68329;BME280;55182;56.864;60.554;2023-03-01T03:51:48;74939.31;;;-143.60;77.95
68329;BME280;55182;56.864;60.554;2023-03-01T03:54:13;74941.34;;;-143.60;77.69
68329;BME280;55182;56.864;60.554;2023-03-01T03:56:39;74933.31;;;-143.60;77.70
68329;BME280;55182;56.864;60.554;2023-03-01T03:59:04;74917.22;;;-143.60;77.01
68329;BME280;55182;56.864;60.554;2023-03-01T04:01:29;74905.19;;;-143.60;77.02
68329;BME280;55182;56.864;60.554;2023-03-01T04:03:55;74895.13;;;-143.60;76.88
68329;BME280;55182;56.864;60.554;2023-03-01T04:06:20;74887.09;;;-143.60;76.39
68329;BME280;55182;56.864;60.554;2023-03-01T04:08:46;74883.09;;;-143.60;76.34
68329;BME280;55182;56.864;60.554;2023-03-01T04:11:12;74873.03;;;-143.60;75.90
68329;BME280;55182;56.864;60.554;2023-03-01T04:13:38;74869.03;;;-143.60;75.63
68329;BME280;55182;56.864;60.554;2023-03-01T04:16:03;74860.97;;;-143.60;75.53
68329;BME280;55182;56.864;60.554;2023-03-01T04:18:29;74860.97;;;-143.60;75.25
68329;BME280;55182;56.864;60.554;2023-03-01T04:20:55;74848.94;;;-143.60;75.09
68329;BME280;55182;56.864;60.554;2023-03-01T04:23:20;74842.91;;;-143.60;74.82
68329;BME280;55182;56.864;60.554;2023-03-01T04:25:50;74840.91;;;-143.60;74.74
68329;BME280;55182;56.864;60.554;2023-03-01T04:28:15;74832.88;;;-143.60;74.69
68329;BME280;55182;56.864;60.554;2023-03-01T04:30:41;74828.84;;;-143.60;74.70
68329;BME280;55182;56.864;60.554;2023-03-01T04:33:07;74824.81;;;-143.60;74.68
68329;BME280;55182;56.864;60.554;2023-03-01T04:35:33;74824.81;;;-143.60;74.46
68329;BME280;55182;56.864;60.554;2023-03-01T04:37:59;74816.78;;;-143.60;74.23
68329;BME280;55182;56.864;60.554;2023-03-01T04:40:24;74812.78;;;-143.60;74.44
68329;BME280;55182;56.864;60.554;2023-03-01T04:42:50;74808.75;;;-143.60;74.12
68329;BME280;55182;56.864;60.554;2023-03-01T04:45:15;74806.75;;;-143.60;74.08
68329;BME280;55182;56.864;60.554;2023-03-01T04:47:42;74800.72;;;-143.60;74.26
68329;BME280;55182;56.864;60.554;2023-03-01T04:50:08;74796.69;;;-143.60;74.06
68329;BME280;55182;56.864;60.554;2023-03-01T04:52:35;74792.69;;;-143.60;74.29
68329;BME280;55182;56.864;60.554;2023-03-01T04:55:01;74792.69;;;-143.60;74.14
68329;BME280;55182;56.864;60.554;2023-03-01T04:57:26;74786.66;;;-143.60;73.94
68329;BME280;55182;56.864;60.554;2023-03-01T04:59:52;74788.66;;;-143.60;73.91
68329;BME280;55182;56.864;60.554;2023-03-01T05:02:17;74784.66;;;-143.60;73.80
68329;BME280;55182;56.864;60.554;2023-03-01T05:04:44;74772.59;;;-143.60;73.82
68329;BME280;55182;56.864;60.554;2023-03-01T05:07:09;74766.56;;;-143.60;73.52
68329;BME280;55182;56.864;60.554;2023-03-01T05:09:34;74760.53;;;-143.60;73.02
68329;BME280;55182;56.864;60.554;2023-03-01T05:12:00;74758.53;;;-143.60;72.88
68329;BME280;55182;56.864;60.554;2023-03-01T05:14:25;74748.50;;;-143.60;72.52
68329;BME280;55182;56.864;60.554;2023-03-01T05:16:51;74740.47;;;-143.60;72.39
68329;BME280;55182;56.864;60.554;2023-03-01T05:19:16;74728.41;;;-143.60;72.36
68329;BME280;55182;56.864;60.554;2023-03-01T05:21:42;74722.38;;;-143.60;71.63
68329;BME280;55182;56.864;60.554;2023-03-01T05:24:08;74716.34;;;-143.60;71.36
68329;BME280;55182;56.864;60.554;2023-03-01T05:26:33;74710.31;;;-143.60;71.40
68329;BME280;55182;56.864;60.554;2023-03-01T05:28:59;74710.31;;;-143.60;71.43
68329;BME280;55182;56.864;60.554;2023-03-01T05:31:24;74702.28;;;-143.60;71.19
68329;BME280;55182;56.864;60.554;2023-03-01T05:33:50;74692.25;;;-143.60;70.93
68329;BME280;55182;56.864;60.554;2023-03-01T05:36:15;74694.25;;;-143.60;70.36
68329;BME280;55182;56.864;60.554;2023-03-01T05:38:41;74688.22;;;-143.60;70.08
68329;BME280;55182;56.864;60.554;2023-03-01T05:41:12;74686.22;;;-143.60;70.04
68329;BME280;55182;56.864;60.554;2023-03-01T05:43:57;74684.22;;;-143.60;69.85
68329;BME280;55182;56.864;60.554;2023-03-01T05:46:22;74684.22;;;-143.60;69.58
68329;BME280;55182;56.864;60.554;2023-03-01T05:48:48;74680.19;;;-143.60;69.64
68329;BME280;55182;56.864;60.554;2023-03-01T05:51:13;74676.19;;;-143.60;70.03
68329;BME280;55182;56.864;60.554;2023-03-01T05:53:39;74660.09;;;-143.60;70.02
68329;BME280;55182;56.864;60.554;2023-03-01T05:56:05;74650.06;;;-143.60;69.65
68329;BME280;55182;56.864;60.554;2023-03-01T05:58:30;74638.00;;;-143.60;68.99
68329;BME280;55182;56.864;60.554;2023-03-01T06:00:56;74636.00;;;-143.60;69.34
68329;BME280;55182;56.864;60.554;2023-03-01T06:03:21;74627.97;;;-143.60;68.91
68329;BME280;55182;56.864;60.554;2023-03-01T06:05:47;74619.94;;;-143.60;68.97
68329;BME280;55182;56.864;60.554;2023-03-01T06:08:12;74615.91;;;-143.60;68.52
68329;BME280;55182;56.864;60.554;2023-03-01T06:10:38;74611.91;;;-143.60;68.71
68329;BME280;55182;56.864;60.554;2023-03-01T06:13:04;74603.84;;;-143.60;68.50
68329;BME280;55182;56.864;60.554;2023-03-01T06:15:29;74605.88;;;-143.60;68.76
68329;BME280;55182;56.864;60.554;2023-03-01T06:17:55;74611.91;;;-143.60;68.86
68329;BME280;55182;56.864;60.554;2023-03-01T06:20:22;74603.84;;;-143.60;69.03
68329;BME280;55182;56.864;60.554;2023-03-01T06:22:48;74607.88;;;-143.60;68.49
68329;BME280;55182;56.864;60.554;2023-03-01T06:25:15;74589.81;;;-143.60;68.31
68329;BME280;55182;56.864;60.554;2023-03-01T06:27:41;74579.75;;;-143.60;68.06
68329;BME280;55182;56.864;60.554;2023-03-01T06:30:07;74557.66;;;-143.60;67.89
68329;BME280;55182;56.864;60.554;2023-03-01T06:32:33;74543.59;;;-143.60;67.25
68329;BME280;55182;56.864;60.554;2023-03-01T06:34:59;74531.53;;;-143.60;66.65
68329;BME280;55182;56.864;60.554;2023-03-01T06:37:25;74515.47;;;-143.60;66.73
68329;BME280;55182;56.864;60.554;2023-03-01T06:39:51;74505.44;;;-143.60;66.54
68329;BME280;55182;56.864;60.554;2023-03-01T06:42:16;74491.38;;;-143.60;66.78
68329;BME280;55182;56.864;60.554;2023-03-01T06:44:42;74475.31;;;-143.60;66.30
68329;BME280;55182;56.864;60.554;2023-03-01T06:47:09;74463.25;;;-143.60;66.15
68329;BME280;55182;56.864;60.554;2023-03-01T06:49:34;74453.22;;;-143.60;65.54
68329;BME280;55182;56.864;60.554;2023-03-01T06:51:59;74459.25;;;-143.60;65.89
68329;BME280;55182;56.864;60.554;2023-03-01T06:54:25;74453.22;;;-143.60;65.75
68329;BME280;55182;56.864;60.554;2023-03-01T06:56:50;74459.25;;;-143.60;65.96
68329;BME280;55182;56.864;60.554;2023-03-01T06:59:16;74457.22;;;-143.60;66.86
68329;BME280;55182;56.864;60.554;2023-03-01T07:01:42;74453.22;;;-143.60;66.52
68329;BME280;55182;56.864;60.554;2023-03-01T07:04:08;74437.13;;;-143.60;66.52
68329;BME280;55182;56.864;60.554;2023-03-01T07:06:33;74421.06;;;-143.60;66.25
68329;BME280;55182;56.864;60.554;2023-03-01T07:08:59;74411.03;;;-143.60;65.58
68329;BME280;55182;56.864;60.554;2023-03-01T07:11:24;74403.00;;;-143.60;66.15
68329;BME280;55182;56.864;60.554;2023-03-01T07:13:50;74398.97;;;-143.60;65.50
68329;BME280;55182;56.864;60.554;2023-03-01T07:16:15;74398.97;;;-143.60;65.27
68329;BME280;55182;56.864;60.554;2023-03-01T07:18:41;74409.03;;;-143.60;65.39
68329;BME280;55182;56.864;60.554;2023-03-01T07:21:11;74401.00;;;-143.60;65.94
68329;BME280;55182;56.864;60.554;2023-03-01T07:23:37;74390.94;;;-143.60;65.71
68329;BME280;55182;56.864;60.554;2023-03-01T07:26:03;74370.84;;;-143.60;66.10
68329;BME280;55182;56.864;60.554;2023-03-01T07:28:28;74368.84;;;-143.60;65.66
68329;BME280;55182;56.864;60.554;2023-03-01T07:30:54;74378.91;;;-143.60;65.37
68329;BME280;55182;56.864;60.554;2023-03-01T07:33:19;74382.91;;;-143.60;64.76
68329;BME280;55182;56.864;60.554;2023-03-01T07:35:44;74380.91;;;-143.60;65.21
68329;BME280;55182;56.864;60.554;2023-03-01T07:38:10;74362.81;;;-143.60;65.38
68329;BME280;55182;56.864;60.554;2023-03-01T07:40:36;74348.75;;;-143.60;64.75
68329;BME280;55182;56.864;60.554;2023-03-01T07:43:01;74332.69;;;-143.60;63.89
68329;BME280;55182;56.864;60.554;2023-03-01T07:45:27;74340.72;;;-143.60;64.18
68329;BME280;55182;56.864;60.554;2023-03-01T07:47:53;74326.66;;;-143.60;64.17
68329;BME280;55182;56.864;60.554;2023-03-01T07:50:20;74310.59;;;-143.60;63.97
68329;BME280;55182;56.864;60.554;2023-03-01T07:52:46;74304.56;;;-143.60;62.32
68329;BME280;55182;56.864;60.554;2023-03-01T07:55:11;74296.53;;;-143.60;61.94
68329;BME280;55182;56.864;60.554;2023-03-01T07:57:37;74286.50;;;-143.60;61.65
68329;BME280;55182;56.864;60.554;2023-03-01T08:00:03;74274.44;;;-143.60;61.20
68329;BME280;55182;56.864;60.554;2023-03-01T08:02:37;74266.41;;;-143.60;62.20
68329;BME280;55182;56.864;60.554;2023-03-01T08:05:02;74256.38;;;-143.60;62.28
68329;BME280;55182;56.864;60.554;2023-03-01T08:07:28;74252.34;;;-143.60;62.09
68329;BME280;55182;56.864;60.554;2023-03-01T08:09:54;74246.31;;;-143.60;62.12
68329;BME280;55182;56.864;60.554;2023-03-01T08:12:19;74246.31;;;-143.60;61.02
68329;BME280;55182;56.864;60.554;2023-03-01T08:14:44;74244.31;;;-143.60;60.77
68329;BME280;55182;56.864;60.554;2023-03-01T08:17:10;74262.41;;;-143.60;60.11
68329;BME280;55182;56.864;60.554;2023-03-01T08:19:35;74258.38;;;-143.60;60.65
68329;BME280;55182;56.864;60.554;2023-03-01T08:22:01;74240.31;;;-143.60;61.54
68329;BME280;55182;56.864;60.554;2023-03-01T08:24:27;74230.25;;;-143.60;62.01
68329;BME280;55182;56.864;60.554;2023-03-01T08:26:52;74216.19;;;-143.60;61.88
68329;BME280;55182;56.864;60.554;2023-03-01T08:29:17;74218.22;;;-143.60;60.93
68329;BME280;55182;56.864;60.554;2023-03-01T08:31:43;74210.19;;;-143.60;60.10
68329;BME280;55182;56.864;60.554;2023-03-01T08:34:11;74226.25;;;-143.60;59.41
68329;BME280;55182;56.864;60.554;2023-03-01T08:36:38;74230.25;;;-143.60;59.84
68329;BME280;55182;56.864;60.554;2023-03-01T08:39:04;74232.28;;;-143.60;59.71
68329;BME280;55182;56.864;60.554;2023-03-01T08:41:30;74232.28;;;-143.60;59.10
68329;BME280;55182;56.864;60.554;2023-03-01T08:43:56;74228.25;;;-143.60;60.11
68329;BME280;55182;56.864;60.554;2023-03-01T08:46:21;74218.22;;;-143.60;58.09
68329;BME280;55182;56.864;60.554;2023-03-01T08:48:47;74214.19;;;-143.60;58.05
68329;BME280;55182;56.864;60.554;2023-03-01T08:53:38;74194.09;;;-143.60;57.88
68329;BME280;55182;56.864;60.554;2023-03-01T08:56:03;74180.03;;;-143.60;58.00
68329;BME280;55182;56.864;60.554;2023-03-01T08:58:29;74182.06;;;-143.60;57.44
68329;BME280;55182;56.864;60.554;2023-03-01T09:00:55;74186.06;;;-143.60;57.91
68329;BME280;55182;56.864;60.554;2023-03-01T09:03:20;74210.19;;;-143.60;58.98
68329;BME280;55182;56.864;60.554;2023-03-01T09:05:46;74218.22;;;-143.60;59.01
68329;BME280;55182;56.864;60.554;2023-03-01T09:08:11;74224.22;;;-143.60;58.38
68329;BME280;55182;56.864;60.554;2023-03-01T09:10:38;74228.25;;;-143.60;58.54
68329;BME280;55182;56.864;60.554;2023-03-01T09:13:03;74232.28;;;-143.60;58.92
68329;BME280;55182;56.864;60.554;2023-03-01T09:15:29;74232.28;;;-143.60;59.31
68329;BME280;55182;56.864;60.554;2023-03-01T09:17:54;74218.22;;;-143.60;59.42
68329;BME280;55182;56.864;60.554;2023-03-01T09:20:20;74210.19;;;-143.60;60.04
68329;BME280;55182;56.864;60.554;2023-03-01T09:22:45;74194.09;;;-143.60;59.82
68329;BME280;55182;56.864;60.554;2023-03-01T09:25:11;74190.09;;;-143.60;59.54
68329;BME280;55182;56.864;60.554;2023-03-01T09:27:36;74190.09;;;-143.60;59.63
68329;BME280;55182;56.864;60.554;2023-03-01T09:30:02;74194.09;;;-143.60;59.90
68329;BME280;55182;56.864;60.554;2023-03-01T09:32:29;74190.09;;;-143.60;60.74
68329;BME280;55182;56.864;60.554;2023-03-01T09:34:54;74192.09;;;-143.60;60.74
68329;BME280;55182;56.864;60.554;2023-03-01T09:37:20;74186.06;;;-143.60;61.67
68329;BME280;55182;56.864;60.554;2023-03-01T09:39:45;74172.00;;;-143.60;60.40
68329;BME280;55182;56.864;60.554;2023-03-01T09:42:11;74174.03;;;-143.60;60.05
68329;BME280;55182;56.864;60.554;2023-03-01T09:44:45;74178.03;;;-143.60;60.74
68329;BME280;55182;56.864;60.554;2023-03-01T09:47:20;74170.00;;;-143.60;61.80
68329;BME280;55182;56.864;60.554;2023-03-01T09:49:58;74166.00;;;-143.60;61.69
68329;BME280;55182;56.864;60.554;2023-03-01T09:55:05;74190.09;;;-143.60;62.65
68329;BME280;55182;56.864;60.554;2023-03-01T09:57:38;74186.06;;;-143.60;63.51
68329;BME280;55182;56.864;60.554;2023-03-01T10:08:21;74194.09;;;-143.60;64.53
68329;BME280;55182;56.864;60.554;2023-03-01T10:10:48;74204.16;;;-143.60;64.07
68329;BME280;55182;56.864;60.554;2023-03-01T10:13:37;74212.19;;;-143.60;64.77
68329;BME280;55182;56.864;60.554;2023-03-01T10:16:13;74228.25;;;-143.60;64.46
68329;BME280;55182;56.864;60.554;2023-03-01T10:18:40;74230.25;;;-143.60;64.86
68329;BME280;55182;56.864;60.554;2023-03-01T10:21:17;74220.22;;;-143.60;65.08
68329;BME280;55182;56.864;60.554;2023-03-01T10:23:42;74208.16;;;-143.60;65.44
68329;BME280;55182;56.864;60.554;2023-03-01T10:31:22;74178.03;;;-143.60;64.90
68329;BME280;55182;56.864;60.554;2023-03-01T10:33:49;74188.09;;;-143.60;64.22
68329;BME280;55182;56.864;60.554;2023-03-01T10:36:14;74218.22;;;-143.60;65.34
68329;BME280;55182;56.864;60.554;2023-03-01T10:38:47;74226.25;;;-143.60;65.95
68329;BME280;55182;56.864;60.554;2023-03-01T10:41:13;74230.25;;;-143.60;66.91
68329;BME280;55182;56.864;60.554;2023-03-01T10:43:49;74236.28;;;-143.60;67.14
68329;BME280;55182;56.864;60.554;2023-03-01T10:46:34;74238.28;;;-143.60;67.44
68329;BME280;55182;56.864;60.554;2023-03-01T10:51:42;74242.31;;;-143.60;67.89
68329;BME280;55182;56.864;60.554;2023-03-01T10:56:53;74242.31;;;-143.60;67.99
68329;BME280;55182;56.864;60.554;2023-03-01T10:59:29;74254.38;;;-143.60;68.41
68329;BME280;55182;56.864;60.554;2023-03-01T11:04:38;74270.44;;;-143.60;69.50
68329;BME280;55182;56.864;60.554;2023-03-01T11:07:04;74270.44;;;-143.60;69.70
68329;BME280;55182;56.864;60.554;2023-03-01T11:09:33;74272.44;;;-143.60;70.06
68329;BME280;55182;56.864;60.554;2023-03-01T11:12:00;74264.41;;;-143.60;70.97
68329;BME280;55182;56.864;60.554;2023-03-01T11:14:27;74282.47;;;-143.60;71.97
68329;BME280;55182;56.864;60.554;2023-03-01T11:17:00;74290.50;;;-143.60;72.87
68329;BME280;55182;56.864;60.554;2023-03-01T11:19:25;74290.50;;;-143.60;73.28
68329;BME280;55182;56.864;60.554;2023-03-01T11:24:37;74294.53;;;-143.60;74.79
68329;BME280;55182;56.864;60.554;2023-03-01T11:27:04;74298.53;;;-143.60;75.75
68329;BME280;55182;56.864;60.554;2023-03-01T11:29:38;74298.53;;;-143.60;75.79
68329;BME280;55182;56.864;60.554;2023-03-01T11:32:06;74296.53;;;-143.60;75.93
68329;BME280;55182;56.864;60.554;2023-03-01T11:34:37;74308.59;;;-143.60;75.19
68329;BME280;55182;56.864;60.554;2023-03-01T11:37:07;74314.63;;;-143.60;75.73
68329;BME280;55182;56.864;60.554;2023-03-01T11:39:47;74318.63;;;-143.60;75.61
68329;BME280;55182;56.864;60.554;2023-03-01T11:42:38;74324.66;;;-143.60;75.94
68329;BME280;55182;56.864;60.554;2023-03-01T11:45:08;74326.66;;;-143.60;74.51
68329;BME280;55182;56.864;60.554;2023-03-01T12:00:19;74322.66;;;-143.60;74.80
68329;BME280;55182;56.864;60.554;2023-03-01T12:08:20;74316.63;;;-143.60;75.78
68329;BME280;55182;56.864;60.554;2023-03-01T12:18:21;74356.78;;;-143.60;78.29
68329;BME280;55182;56.864;60.554;2023-03-01T12:26:22;74403.00;;;-143.60;76.51
68329;BME280;55182;56.864;60.554;2023-03-01T12:29:07;74407.00;;;-143.60;75.50
68329;BME280;55182;56.864;60.554;2023-03-01T12:41:43;74407.00;;;-143.60;71.74
68329;BME280;55182;56.864;60.554;2023-03-01T12:44:27;74403.00;;;-143.60;72.02
68329;BME280;55182;56.864;60.554;2023-03-01T12:51:56;74407.00;;;-143.60;71.33
68329;BME280;55182;56.864;60.554;2023-03-01T12:54:28;74403.00;;;-143.60;70.96
68329;BME280;55182;56.864;60.554;2023-03-01T12:56:55;74415.03;;;-143.60;71.43
68329;BME280;55182;56.864;60.554;2023-03-01T13:01:56;74421.06;;;-143.60;71.30
68329;BME280;55182;56.864;60.554;2023-03-01T13:04:34;74419.06;;;-143.60;71.65
68329;BME280;55182;56.864;60.554;2023-03-01T13:12:00;74427.09;;;-143.60;70.54
68329;BME280;55182;56.864;60.554;2023-03-01T13:16:51;74443.16;;;-143.60;70.83
68329;BME280;55182;56.864;60.554;2023-03-01T13:19:24;74443.16;;;-143.60;70.97
68329;BME280;55182;56.864;60.554;2023-03-01T13:21:50;74453.22;;;-143.60;71.53
68329;BME280;55182;56.864;60.554;2023-03-01T13:24:32;74455.22;;;-143.60;71.71
68329;BME280;55182;56.864;60.554;2023-03-01T13:29:53;74473.28;;;-143.60;72.47
68329;BME280;55182;56.864;60.554;2023-03-01T13:32:26;74483.34;;;-143.60;72.87
68329;BME280;55182;56.864;60.554;2023-03-01T13:34:53;74483.34;;;-143.60;73.12
68329;BME280;55182;56.864;60.554;2023-03-01T13:37:23;74481.34;;;-143.60;73.33
68329;BME280;55182;56.864;60.554;2023-03-01T13:39:50;74493.38;;;-143.60;73.79
68329;BME280;55182;56.864;60.554;2023-03-01T13:42:31;74491.38;;;-143.60;74.34
68329;BME280;55182;56.864;60.554;2023-03-01T13:44:58;74495.41;;;-143.60;74.46
68329;BME280;55182;56.864;60.554;2023-03-01T13:47:24;74487.34;;;-143.60;73.96
68329;BME280;55182;56.864;60.554;2023-03-01T13:50:02;74487.34;;;-143.60;73.83
68329;BME280;55182;56.864;60.554;2023-03-01T13:55:52;74481.34;;;-143.60;73.44
68329;BME280;55182;56.864;60.554;2023-03-01T13:57:58;74485.34;;;-143.60;73.93
68329;BME280;55182;56.864;60.554;2023-03-01T14:03:00;74499.41;;;-143.60;74.27
68329;BME280;55182;56.864;60.554;2023-03-01T14:05:25;74499.41;;;-143.60;74.28
68329;BME280;55182;56.864;60.554;2023-03-01T14:07:51;74505.44;;;-143.60;74.06
68329;BME280;55182;56.864;60.554;2023-03-01T14:10:17;74507.44;;;-143.60;74.26
68329;BME280;55182;56.864;60.554;2023-03-01T14:12:55;74521.50;;;-143.60;74.42
68329;BME280;55182;56.864;60.554;2023-03-01T14:15:42;74523.50;;;-143.60;74.25